sensor_id;sensor_type;location;lat;lon;timestamp;pressure;altitude;pressure_sealevel;temperature;humidity
8501;BME280;4288;48.484;10.024;2022-11-06T00:01:16;96000.44;;;14.75;87.33
8501;BME280;4288;48.484;10.024;2022-11-06T00:03:43;96005.09;;;14.74;87.26
8501;BME280;4288;48.484;10.024;2022-11-06T00:06:12;95999.72;;;14.74;87.33
8501;BME280;4288;48.484;10.024;2022-11-06T00:09:00;96007.00;;;14.74;87.32
8501;BME280;4288;48.484;10.024;2022-11-06T00:11:28;95999.72;;;14.74;87.26
8501;BME280;4288;48.484;10.024;2022-11-06T00:13:56;95998.16;;;14.73;87.23
8501;BME280;4288;48.484;10.024;2022-11-06T00:16:24;96007.38;;;14.76;87.12
8501;BME280;4288;48.484;10.024;2022-11-06T00:18:51;96001.22;;;14.75;87.03
8501;BME280;4288;48.484;10.024;2022-11-06T00:21:21;95993.94;;;14.76;87.29
8501;BME280;4288;48.484;10.024;2022-11-06T00:23:50;95982.41;;;14.72;87.01
8501;BME280;4288;48.484;10.024;2022-11-06T00:26:21;95990.47;;;14.75;87.33
8501;BME280;4288;48.484;10.024;2022-11-06T00:28:49;95989.69;;;14.75;87.15
8501;BME280;4288;48.484;10.024;2022-11-06T00:31:19;95993.94;;;14.76;87.22
8501;BME280;4288;48.484;10.024;2022-11-06T00:33:47;95990.47;;;14.75;87.00
8501;BME280;4288;48.484;10.024;2022-11-06T00:36:18;95996.63;;;14.76;87.18
8501;BME280;4288;48.484;10.024;2022-11-06T00:38:45;95987.00;;;14.75;87.20
8501;BME280;4288;48.484;10.024;2022-11-06T00:41:14;95993.16;;;14.75;86.99
8501;BME280;4288;48.484;10.024;2022-11-06T00:43:47;95983.16;;;14.76;87.05
8501;BME280;4288;48.484;10.024;2022-11-06T00:46:15;95982.38;;;14.75;86.90
8501;BME280;4288;48.484;10.024;2022-11-06T00:48:42;95979.69;;;14.75;87.01
8501;BME280;4288;48.484;10.024;2022-11-06T00:51:13;95976.25;;;14.75;87.30
8501;BME280;4288;48.484;10.024;2022-11-06T00:53:41;95979.69;;;14.75;87.11
8501;BME280;4288;48.484;10.024;2022-11-06T00:56:12;95971.63;;;14.75;86.88
8501;BME280;4288;48.484;10.024;2022-11-06T00:58:40;95969.72;;;14.76;87.00
8501;BME280;4288;48.484;10.024;2022-11-06T01:01:11;95960.88;;;14.75;86.80
8501;BME280;4288;48.484;10.024;2022-11-06T01:03:39;95977.78;;;14.76;86.88
8501;BME280;4288;48.484;10.024;2022-11-06T01:06:10;95962.41;;;14.76;86.78
8501;BME280;4288;48.484;10.024;2022-11-06T01:08:38;95960.09;;;14.75;86.91
8501;BME280;4288;48.484;10.024;2022-11-06T01:11:08;95970.84;;;14.75;86.80
8501;BME280;4288;48.484;10.024;2022-11-06T01:13:36;95961.63;;;14.76;86.85
8501;BME280;4288;48.484;10.024;2022-11-06T01:16:06;95970.47;;;14.76;87.00
8501;BME280;4288;48.484;10.024;2022-11-06T01:18:36;95961.63;;;14.76;86.78
8501;BME280;4288;48.484;10.024;2022-11-06T01:21:05;95967.03;;;14.76;86.79
8501;BME280;4288;48.484;10.024;2022-11-06T01:23:33;95970.84;;;14.75;86.91
8501;BME280;4288;48.484;10.024;2022-11-06T01:26:02;95974.31;;;14.75;86.84
8501;BME280;4288;48.484;10.024;2022-11-06T01:28:30;95977.78;;;14.76;86.61
8501;BME280;4288;48.484;10.024;2022-11-06T01:31:02;95970.84;;;14.75;86.75
8501;BME280;4288;48.484;10.024;2022-11-06T01:33:29;95971.63;;;14.75;86.74
8501;BME280;4288;48.484;10.024;2022-11-06T01:35:58;95970.84;;;14.75;86.72
8501;BME280;4288;48.484;10.024;2022-11-06T01:38:25;95963.56;;;14.75;86.70
8501;BME280;4288;48.484;10.024;2022-11-06T01:40:53;95962.78;;;14.75;86.63
8501;BME280;4288;48.484;10.024;2022-11-06T01:43:24;95960.09;;;14.75;86.65
8501;BME280;4288;48.484;10.024;2022-11-06T01:45:54;95956.66;;;14.74;86.66
8501;BME280;4288;48.484;10.024;2022-11-06T01:48:24;95946.63;;;14.75;86.53
8501;BME280;4288;48.484;10.024;2022-11-06T01:50:57;95947.81;;;14.74;86.37
8501;BME280;4288;48.484;10.024;2022-11-06T01:53:26;95942.81;;;14.76;86.47
8501;BME280;4288;48.484;10.024;2022-11-06T01:55:58;95942.03;;;14.75;86.51
8501;BME280;4288;48.484;10.024;2022-11-06T01:58:29;95937.81;;;14.71;86.35
8501;BME280;4288;48.484;10.024;2022-11-06T02:00:58;95950.50;;;14.74;86.43
8501;BME280;4288;48.484;10.024;2022-11-06T02:03:26;95948.59;;;14.74;86.43
8501;BME280;4288;48.484;10.024;2022-11-06T02:05:54;95943.19;;;14.74;86.54
8501;BME280;4288;48.484;10.024;2022-11-06T02:08:23;95940.88;;;14.73;86.32
8501;BME280;4288;48.484;10.024;2022-11-06T02:10:52;95942.44;;;14.74;86.33
8501;BME280;4288;48.484;10.024;2022-11-06T02:13:36;95931.66;;;14.74;86.49
8501;BME280;4288;48.484;10.024;2022-11-06T02:16:28;95941.25;;;14.75;86.33
8501;BME280;4288;48.484;10.024;2022-11-06T02:19:12;95932.06;;;14.72;86.28
8501;BME280;4288;48.484;10.024;2022-11-06T02:22:04;95928.22;;;14.73;86.16
8501;BME280;4288;48.484;10.024;2022-11-06T02:25:02;95938.56;;;14.75;86.43
8501;BME280;4288;48.484;10.024;2022-11-06T02:27:35;95938.97;;;14.73;86.20
8501;BME280;4288;48.484;10.024;2022-11-06T02:30:06;95941.25;;;14.75;86.20
8501;BME280;4288;48.484;10.024;2022-11-06T02:32:38;95947.81;;;14.74;86.15
8501;BME280;4288;48.484;10.024;2022-11-06T02:35:18;95945.13;;;14.74;86.15
8501;BME280;4288;48.484;10.024;2022-11-06T02:37:50;95945.13;;;14.74;86.24
8501;BME280;4288;48.484;10.024;2022-11-06T02:40:20;95936.28;;;14.73;86.06
8501;BME280;4288;48.484;10.024;2022-11-06T02:42:52;95938.97;;;14.73;86.15
8501;BME280;4288;48.484;10.024;2022-11-06T02:45:22;95939.75;;;14.74;86.00
8501;BME280;4288;48.484;10.024;2022-11-06T02:47:51;95932.06;;;14.72;86.00
8501;BME280;4288;48.484;10.024;2022-11-06T02:50:23;95932.81;;;14.73;85.99
8501;BME280;4288;48.484;10.024;2022-11-06T02:52:54;95935.50;;;14.73;85.97
8501;BME280;4288;48.484;10.024;2022-11-06T02:55:29;95937.06;;;14.74;86.01
8501;BME280;4288;48.484;10.024;2022-11-06T02:58:03;95932.81;;;14.73;85.86
8501;BME280;4288;48.484;10.024;2022-11-06T03:00:32;95926.69;;;14.72;85.50
8501;BME280;4288;48.484;10.024;2022-11-06T03:03:05;95920.53;;;14.72;85.66
8501;BME280;4288;48.484;10.024;2022-11-06T03:05:36;95924.75;;;14.73;85.81
8501;BME280;4288;48.484;10.024;2022-11-06T03:08:09;95916.66;;;14.73;85.73
8501;BME280;4288;48.484;10.024;2022-11-06T03:10:44;95917.84;;;14.72;85.69
8501;BME280;4288;48.484;10.024;2022-11-06T03:13:20;95912.47;;;14.72;85.65
8501;BME280;4288;48.484;10.024;2022-11-06T03:15:57;95913.25;;;14.72;85.64
8501;BME280;4288;48.484;10.024;2022-11-06T03:18:32;95909.78;;;14.72;85.65
8501;BME280;4288;48.484;10.024;2022-11-06T03:21:04;95911.69;;;14.71;85.45
8501;BME280;4288;48.484;10.024;2022-11-06T03:23:37;95912.47;;;14.72;85.52
8501;BME280;4288;48.484;10.024;2022-11-06T03:26:13;95912.47;;;14.72;85.59
8501;BME280;4288;48.484;10.024;2022-11-06T03:28:50;95907.13;;;14.68;85.57
8501;BME280;4288;48.484;10.024;2022-11-06T03:31:25;95905.53;;;14.71;85.41
8501;BME280;4288;48.484;10.024;2022-11-06T03:33:57;95913.63;;;14.71;85.52
8501;BME280;4288;48.484;10.024;2022-11-06T03:36:32;95900.97;;;14.68;85.27
8501;BME280;4288;48.484;10.024;2022-11-06T03:39:03;95904.78;;;14.70;85.37
8501;BME280;4288;48.484;10.024;2022-11-06T03:41:38;95900.56;;;14.69;85.25
8501;BME280;4288;48.484;10.024;2022-11-06T03:44:13;95895.94;;;14.70;85.31
8501;BME280;4288;48.484;10.024;2022-11-06T03:46:47;95901.34;;;14.70;85.11
8501;BME280;4288;48.484;10.024;2022-11-06T03:49:20;95899.41;;;14.67;85.13
8501;BME280;4288;48.484;10.024;2022-11-06T03:51:54;95898.66;;;14.70;85.18
8501;BME280;4288;48.484;10.024;2022-11-06T03:54:26;95890.56;;;14.70;84.96
8501;BME280;4288;48.484;10.024;2022-11-06T03:56:58;95887.09;;;14.69;85.03
8501;BME280;4288;48.484;10.024;2022-11-06T03:59:33;95884.81;;;14.68;85.20
8501;BME280;4288;48.484;10.024;2022-11-06T04:02:02;95885.59;;;14.68;85.06
8501;BME280;4288;48.484;10.024;2022-11-06T04:04:33;95893.66;;;14.68;84.93
8501;BME280;4288;48.484;10.024;2022-11-06T04:07:04;95884.03;;;14.67;85.12
8501;BME280;4288;48.484;10.024;2022-11-06T04:09:35;95875.97;;;14.67;84.87
8501;BME280;4288;48.484;10.024;2022-11-06T04:12:24;95877.91;;;14.67;84.88
8501;BME280;4288;48.484;10.024;2022-11-06T04:15:31;95874.47;;;14.66;85.03
8501;BME280;4288;48.484;10.024;2022-11-06T04:17:59;95875.22;;;14.67;84.86
8501;BME280;4288;48.484;10.024;2022-11-06T04:20:36;95864.84;;;14.65;84.78
8501;BME280;4288;48.484;10.024;2022-11-06T04:23:36;95866.38;;;14.66;84.99
8501;BME280;4288;48.484;10.024;2022-11-06T04:26:14;95864.84;;;14.65;84.65
8501;BME280;4288;48.484;10.024;2022-11-06T04:29:11;95861.38;;;14.65;84.75
8501;BME280;4288;48.484;10.024;2022-11-06T04:31:52;95861.00;;;14.66;84.79
8501;BME280;4288;48.484;10.024;2022-11-06T04:34:32;95854.84;;;14.66;84.59
8501;BME280;4288;48.484;10.024;2022-11-06T04:37:08;95852.56;;;14.64;84.65
8501;BME280;4288;48.484;10.024;2022-11-06T04:39:45;95846.41;;;14.64;84.52
8501;BME280;4288;48.484;10.024;2022-11-06T04:42:25;95847.19;;;14.64;84.46
8501;BME280;4288;48.484;10.024;2022-11-06T04:45:00;95850.63;;;14.65;84.59
8501;BME280;4288;48.484;10.024;2022-11-06T04:47:30;95855.25;;;14.64;84.72
8501;BME280;4288;48.484;10.024;2022-11-06T04:49:59;95837.63;;;14.60;84.47
8501;BME280;4288;48.484;10.024;2022-11-06T04:52:28;95841.81;;;14.64;84.65
8501;BME280;4288;48.484;10.024;2022-11-06T04:54:57;95842.22;;;14.63;84.38
8501;BME280;4288;48.484;10.024;2022-11-06T04:57:25;95836.06;;;14.62;84.47
8501;BME280;4288;48.484;10.024;2022-11-06T04:59:53;95835.28;;;14.62;84.33
8501;BME280;4288;48.484;10.024;2022-11-06T05:02:21;95829.91;;;14.62;84.40
8501;BME280;4288;48.484;10.024;2022-11-06T05:04:50;95823.38;;;14.63;84.34
8501;BME280;4288;48.484;10.024;2022-11-06T05:07:17;95829.13;;;14.61;84.44
8501;BME280;4288;48.484;10.024;2022-11-06T05:09:44;95829.13;;;14.61;84.28
8501;BME280;4288;48.484;10.024;2022-11-06T05:12:11;95828.75;;;14.63;84.40
8501;BME280;4288;48.484;10.024;2022-11-06T05:14:38;95823.38;;;14.63;84.26
8501;BME280;4288;48.484;10.024;2022-11-06T05:17:06;95817.63;;;14.61;84.49
8501;BME280;4288;48.484;10.024;2022-11-06T05:19:33;95811.09;;;14.62;84.19
8501;BME280;4288;48.484;10.024;2022-11-06T05:22:02;95800.31;;;14.62;84.23
8501;BME280;4288;48.484;10.024;2022-11-06T05:24:47;95793.44;;;14.61;84.33
8501;BME280;4288;48.484;10.024;2022-11-06T05:27:14;95789.97;;;14.60;84.18
8501;BME280;4288;48.484;10.024;2022-11-06T05:29:41;95796.84;;;14.61;84.14
8501;BME280;4288;48.484;10.024;2022-11-06T05:32:08;95800.72;;;14.60;84.07
8501;BME280;4288;48.484;10.024;2022-11-06T05:34:35;95797.25;;;14.60;84.24
8501;BME280;4288;48.484;10.024;2022-11-06T05:37:04;95794.16;;;14.61;84.09
8501;BME280;4288;48.484;10.024;2022-11-06T05:39:31;95792.66;;;14.60;84.17
8501;BME280;4288;48.484;10.024;2022-11-06T05:41:58;95796.50;;;14.59;83.96
8501;BME280;4288;48.484;10.024;2022-11-06T05:44:25;95788.41;;;14.59;83.90
8501;BME280;4288;48.484;10.024;2022-11-06T05:46:52;95797.25;;;14.60;83.82
8501;BME280;4288;48.484;10.024;2022-11-06T05:49:19;95793.06;;;14.59;83.85
8501;BME280;4288;48.484;10.024;2022-11-06T05:51:46;95796.13;;;14.57;83.85
8501;BME280;4288;48.484;10.024;2022-11-06T05:54:15;95803.81;;;14.59;84.03
8501;BME280;4288;48.484;10.024;2022-11-06T05:56:42;95819.19;;;14.58;83.95
8501;BME280;4288;48.484;10.024;2022-11-06T05:59:09;95823.78;;;14.58;83.96
8501;BME280;4288;48.484;10.024;2022-11-06T06:01:37;95821.09;;;14.58;83.90
8501;BME280;4288;48.484;10.024;2022-11-06T06:04:04;95811.53;;;14.57;83.60
8501;BME280;4288;48.484;10.024;2022-11-06T06:06:31;95818.41;;;14.58;83.74
8501;BME280;4288;48.484;10.024;2022-11-06T06:08:59;95823.78;;;14.58;83.75
8501;BME280;4288;48.484;10.024;2022-11-06T06:11:27;95836.47;;;14.57;83.70
8501;BME280;4288;48.484;10.024;2022-11-06T06:13:54;95833.78;;;14.57;83.67
8501;BME280;4288;48.484;10.024;2022-11-06T06:16:21;95831.09;;;14.57;83.66
8501;BME280;4288;48.484;10.024;2022-11-06T06:18:49;95829.56;;;14.56;83.54
8501;BME280;4288;48.484;10.024;2022-11-06T06:21:16;95830.34;;;14.57;83.61
8501;BME280;4288;48.484;10.024;2022-11-06T06:23:44;95831.50;;;14.56;83.65
8501;BME280;4288;48.484;10.024;2022-11-06T06:26:11;95821.50;;;14.56;83.60
8501;BME280;4288;48.484;10.024;2022-11-06T06:28:39;95818.03;;;14.56;83.59
8501;BME280;4288;48.484;10.024;2022-11-06T06:31:07;95815.00;;;14.54;83.45
8501;BME280;4288;48.484;10.024;2022-11-06T06:33:34;95813.06;;;14.54;83.49
8501;BME280;4288;48.484;10.024;2022-11-06T06:36:03;95807.69;;;14.54;83.31
8501;BME280;4288;48.484;10.024;2022-11-06T06:38:30;95805.78;;;14.55;83.36
8501;BME280;4288;48.484;10.024;2022-11-06T06:41:00;95821.13;;;14.54;83.50
8501;BME280;4288;48.484;10.024;2022-11-06T06:43:28;95827.28;;;14.55;83.41
8501;BME280;4288;48.484;10.024;2022-11-06T06:45:58;95826.16;;;14.52;83.55
8501;BME280;4288;48.484;10.024;2022-11-06T06:48:25;95824.97;;;14.53;83.39
8501;BME280;4288;48.484;10.024;2022-11-06T06:50:55;95840.38;;;14.53;83.29
8501;BME280;4288;48.484;10.024;2022-11-06T06:53:23;95838.06;;;14.51;83.26
8501;BME280;4288;48.484;10.024;2022-11-06T06:55:51;95834.22;;;14.52;83.13
8501;BME280;4288;48.484;10.024;2022-11-06T06:58:18;95833.44;;;14.52;83.17
8501;BME280;4288;48.484;10.024;2022-11-06T07:00:46;95830.00;;;14.51;83.23
8501;BME280;4288;48.484;10.024;2022-11-06T07:03:14;95831.94;;;14.51;83.14
8501;BME280;4288;48.484;10.024;2022-11-06T07:05:41;95842.69;;;14.51;83.12
8501;BME280;4288;48.484;10.024;2022-11-06T07:08:09;95841.91;;;14.50;82.99
8501;BME280;4288;48.484;10.024;2022-11-06T07:10:36;95847.31;;;14.50;83.14
8501;BME280;4288;48.484;10.024;2022-11-06T07:13:04;95846.53;;;14.50;83.19
8501;BME280;4288;48.484;10.024;2022-11-06T07:15:31;95842.69;;;14.51;83.19
8501;BME280;4288;48.484;10.024;2022-11-06T07:18:01;95835.78;;;14.50;83.07
8501;BME280;4288;48.484;10.024;2022-11-06T07:20:30;95833.84;;;14.50;83.08
8501;BME280;4288;48.484;10.024;2022-11-06T07:22:57;95838.47;;;14.50;83.08
8501;BME280;4288;48.484;10.024;2022-11-06T07:25:25;95830.38;;;14.50;83.14
8501;BME280;4288;48.484;10.024;2022-11-06T07:27:52;95819.25;;;14.48;83.03
8501;BME280;4288;48.484;10.024;2022-11-06T07:30:20;95822.72;;;14.48;82.86
8501;BME280;4288;48.484;10.024;2022-11-06T07:32:47;95820.81;;;14.49;83.01
8501;BME280;4288;48.484;10.024;2022-11-06T07:35:14;95816.56;;;14.48;82.91
8501;BME280;4288;48.484;10.024;2022-11-06T07:37:43;95819.25;;;14.48;83.02
8501;BME280;4288;48.484;10.024;2022-11-06T07:40:10;95815.06;;;14.47;82.90
8501;BME280;4288;48.484;10.024;2022-11-06T07:42:39;95805.81;;;14.48;82.81
8501;BME280;4288;48.484;10.024;2022-11-06T07:45:08;95787.41;;;14.46;82.90
8501;BME280;4288;48.484;10.024;2022-11-06T07:47:35;95802.38;;;14.47;82.74
8501;BME280;4288;48.484;10.024;2022-11-06T07:50:03;95792.38;;;14.48;82.94
8501;BME280;4288;48.484;10.024;2022-11-06T07:52:31;95785.06;;;14.48;82.78
8501;BME280;4288;48.484;10.024;2022-11-06T07:55:00;95786.25;;;14.47;82.83
8501;BME280;4288;48.484;10.024;2022-11-06T07:57:27;95783.91;;;14.49;82.60
8501;BME280;4288;48.484;10.024;2022-11-06T07:59:54;95780.47;;;14.49;82.80
8501;BME280;4288;48.484;10.024;2022-11-06T08:02:21;95775.81;;;14.49;82.80
8501;BME280;4288;48.484;10.024;2022-11-06T08:04:48;95767.41;;;14.47;82.81
8501;BME280;4288;48.484;10.024;2022-11-06T08:07:15;95763.97;;;14.47;82.78
8501;BME280;4288;48.484;10.024;2022-11-06T08:09:42;95756.66;;;14.47;82.81
8501;BME280;4288;48.484;10.024;2022-11-06T08:12:11;95757.81;;;14.46;82.70
8501;BME280;4288;48.484;10.024;2022-11-06T08:14:39;95754.34;;;14.46;82.67
8501;BME280;4288;48.484;10.024;2022-11-06T08:17:07;95754.34;;;14.46;82.74
8501;BME280;4288;48.484;10.024;2022-11-06T08:19:34;95753.59;;;14.45;82.69
8501;BME280;4288;48.484;10.024;2022-11-06T08:22:01;95748.97;;;14.46;82.60
8501;BME280;4288;48.484;10.024;2022-11-06T08:24:28;95741.31;;;14.44;82.56
8501;BME280;4288;48.484;10.024;2022-11-06T08:26:56;95724.41;;;14.44;82.56
8501;BME280;4288;48.484;10.024;2022-11-06T08:29:25;95717.88;;;14.45;82.52
8501;BME280;4288;48.484;10.024;2022-11-06T08:31:52;95709.03;;;14.44;82.58
8501;BME280;4288;48.484;10.024;2022-11-06T08:34:19;95709.44;;;14.43;82.40
8501;BME280;4288;48.484;10.024;2022-11-06T08:36:46;95713.66;;;14.44;82.47
8501;BME280;4288;48.484;10.024;2022-11-06T08:39:15;95706.75;;;14.43;82.41
8501;BME280;4288;48.484;10.024;2022-11-06T08:41:42;95697.50;;;14.44;82.53
8501;BME280;4288;48.484;10.024;2022-11-06T08:44:10;95697.16;;;14.42;82.40
8501;BME280;4288;48.484;10.024;2022-11-06T08:46:38;95692.53;;;14.42;82.61
8501;BME280;4288;48.484;10.024;2022-11-06T08:49:05;95684.47;;;14.42;82.34
8501;BME280;4288;48.484;10.024;2022-11-06T08:51:32;95683.69;;;14.42;82.26
8501;BME280;4288;48.484;10.024;2022-11-06T08:53:59;95681.00;;;14.42;82.23
8501;BME280;4288;48.484;10.024;2022-11-06T08:56:27;95672.94;;;14.42;82.22
8501;BME280;4288;48.484;10.024;2022-11-06T08:58:54;95664.13;;;14.41;82.25
8501;BME280;4288;48.484;10.024;2022-11-06T09:01:21;95661.44;;;14.41;82.21
8501;BME280;4288;48.484;10.024;2022-11-06T09:03:51;95658.75;;;14.41;82.21
8501;BME280;4288;48.484;10.024;2022-11-06T09:06:18;95648.75;;;14.42;82.14
8501;BME280;4288;48.484;10.024;2022-11-06T09:08:45;95647.22;;;14.41;82.16
8501;BME280;4288;48.484;10.024;2022-11-06T09:11:12;95636.47;;;14.41;82.20
8501;BME280;4288;48.484;10.024;2022-11-06T09:13:39;95635.69;;;14.40;82.14
8501;BME280;4288;48.484;10.024;2022-11-06T09:16:06;95630.31;;;14.40;82.15
8501;BME280;4288;48.484;10.024;2022-11-06T09:18:34;95632.25;;;14.40;82.03
8501;BME280;4288;48.484;10.024;2022-11-06T09:21:02;95633.78;;;14.41;82.10
8501;BME280;4288;48.484;10.024;2022-11-06T09:23:30;95624.94;;;14.40;82.11
8501;BME280;4288;48.484;10.024;2022-11-06T09:25:57;95627.63;;;14.40;82.25
8501;BME280;4288;48.484;10.024;2022-11-06T09:28:24;95626.13;;;14.39;82.19
8501;BME280;4288;48.484;10.024;2022-11-06T09:30:51;95629.56;;;14.40;82.15
8501;BME280;4288;48.484;10.024;2022-11-06T09:33:20;95623.03;;;14.41;82.30
8501;BME280;4288;48.484;10.024;2022-11-06T09:35:47;95634.94;;;14.40;82.15
8501;BME280;4288;48.484;10.024;2022-11-06T09:38:15;95633.00;;;14.40;82.26
8501;BME280;4288;48.484;10.024;2022-11-06T09:40:48;95617.69;;;14.37;82.21
8501;BME280;4288;48.484;10.024;2022-11-06T09:43:41;95623.03;;;14.41;82.32
8501;BME280;4288;48.484;10.024;2022-11-06T09:46:19;95623.81;;;14.38;82.10
8501;BME280;4288;48.484;10.024;2022-11-06T09:48:55;95636.47;;;14.41;82.36
8501;BME280;4288;48.484;10.024;2022-11-06T09:51:32;95624.59;;;14.38;82.42
8501;BME280;4288;48.484;10.024;2022-11-06T09:54:10;95628.41;;;14.41;82.30
8501;BME280;4288;48.484;10.024;2022-11-06T09:56:41;95620.34;;;14.41;82.33
8501;BME280;4288;48.484;10.024;2022-11-06T09:59:13;95612.28;;;14.41;82.42
8501;BME280;4288;48.484;10.024;2022-11-06T10:01:45;95611.13;;;14.38;82.42
8501;BME280;4288;48.484;10.024;2022-11-06T10:04:29;95608.44;;;14.38;82.42
8501;BME280;4288;48.484;10.024;2022-11-06T10:06:58;95614.97;;;14.41;82.57
8501;BME280;4288;48.484;10.024;2022-11-06T10:09:27;95613.78;;;14.42;82.61
8501;BME280;4288;48.484;10.024;2022-11-06T10:12:03;95609.59;;;14.41;82.61
8501;BME280;4288;48.484;10.024;2022-11-06T10:14:47;95610.00;;;14.39;82.63
8501;BME280;4288;48.484;10.024;2022-11-06T10:17:32;95613.41;;;14.40;82.81
8501;BME280;4288;48.484;10.024;2022-11-06T10:20:11;95610.72;;;14.40;82.88
8501;BME280;4288;48.484;10.024;2022-11-06T10:22:52;95609.59;;;14.41;82.81
8501;BME280;4288;48.484;10.024;2022-11-06T10:25:45;95602.66;;;14.40;82.75
8501;BME280;4288;48.484;10.024;2022-11-06T10:28:38;95586.50;;;14.43;82.79
8501;BME280;4288;48.484;10.024;2022-11-06T10:31:17;95581.88;;;14.44;83.34
8501;BME280;4288;48.484;10.024;2022-11-06T10:33:55;95554.97;;;14.44;83.36
8501;BME280;4288;48.484;10.024;2022-11-06T10:36:29;95560.72;;;14.46;83.41
8501;BME280;4288;48.484;10.024;2022-11-06T10:39:03;95556.16;;;14.43;83.45
8501;BME280;4288;48.484;10.024;2022-11-06T10:41:33;95559.22;;;14.45;83.53
8501;BME280;4288;48.484;10.024;2022-11-06T10:44:07;95568.06;;;14.45;84.14
8501;BME280;4288;48.484;10.024;2022-11-06T10:46:41;95574.16;;;14.46;83.80
8501;BME280;4288;48.484;10.024;2022-11-06T10:49:17;95600.31;;;14.45;83.77
8501;BME280;4288;48.484;10.024;2022-11-06T10:52:02;95613.75;;;14.45;83.86
8501;BME280;4288;48.484;10.024;2022-11-06T10:54:50;95612.59;;;14.46;83.81
8501;BME280;4288;48.484;10.024;2022-11-06T10:57:31;95599.91;;;14.47;83.84
8501;BME280;4288;48.484;10.024;2022-11-06T11:00:04;95591.47;;;14.45;83.94
8501;BME280;4288;48.484;10.024;2022-11-06T11:02:34;95590.31;;;14.46;83.94
8501;BME280;4288;48.484;10.024;2022-11-06T11:05:11;95584.19;;;14.45;83.78
8501;BME280;4288;48.484;10.024;2022-11-06T11:07:39;95585.69;;;14.46;84.07
8501;BME280;4288;48.484;10.024;2022-11-06T11:10:30;95581.09;;;14.47;83.82
8501;BME280;4288;48.484;10.024;2022-11-06T11:13:01;95578.81;;;14.45;83.74
8501;BME280;4288;48.484;10.024;2022-11-06T11:15:30;95566.50;;;14.44;83.55
8501;BME280;4288;48.484;10.024;2022-11-06T11:18:15;95569.16;;;14.48;83.72
8501;BME280;4288;48.484;10.024;2022-11-06T11:20:44;95564.94;;;14.47;83.96
8501;BME280;4288;48.484;10.024;2022-11-06T11:23:19;95558.41;;;14.48;83.88
8501;BME280;4288;48.484;10.024;2022-11-06T11:25:49;95553.78;;;14.48;83.95
8501;BME280;4288;48.484;10.024;2022-11-06T11:28:30;95553.44;;;14.46;83.74
8501;BME280;4288;48.484;10.024;2022-11-06T11:31:08;95536.88;;;14.48;83.97
8501;BME280;4288;48.484;10.024;2022-11-06T11:33:37;95526.88;;;14.48;83.91
8501;BME280;4288;48.484;10.024;2022-11-06T11:36:07;95522.28;;;14.49;84.10
8501;BME280;4288;48.484;10.024;2022-11-06T11:38:37;95511.53;;;14.49;83.98
8501;BME280;4288;48.484;10.024;2022-11-06T11:41:08;95491.56;;;14.46;84.02
8501;BME280;4288;48.484;10.024;2022-11-06T11:43:39;95495.38;;;14.49;84.00
8501;BME280;4288;48.484;10.024;2022-11-06T11:46:19;95486.13;;;14.50;84.09
8501;BME280;4288;48.484;10.024;2022-11-06T11:48:49;95479.25;;;14.49;84.09
8501;BME280;4288;48.484;10.024;2022-11-06T11:51:29;95473.88;;;14.49;83.93
8501;BME280;4288;48.484;10.024;2022-11-06T11:54:05;95474.22;;;14.51;84.05
8501;BME280;4288;48.484;10.024;2022-11-06T11:56:42;95467.69;;;14.52;84.38
8501;BME280;4288;48.484;10.024;2022-11-06T11:59:17;95458.09;;;14.51;84.15
8501;BME280;4288;48.484;10.024;2022-11-06T12:01:46;95448.06;;;14.51;84.34
8501;BME280;4288;48.484;10.024;2022-11-06T12:04:21;95433.06;;;14.54;84.50
8501;BME280;4288;48.484;10.024;2022-11-06T12:06:56;95425.81;;;14.51;84.28
8501;BME280;4288;48.484;10.024;2022-11-06T12:09:26;95421.53;;;14.53;84.39
8501;BME280;4288;48.484;10.024;2022-11-06T12:11:55;95418.13;;;14.53;84.52
8501;BME280;4288;48.484;10.024;2022-11-06T12:14:36;95419.22;;;14.55;84.35
8501;BME280;4288;48.484;10.024;2022-11-06T12:17:12;95415.00;;;14.54;84.46
8501;BME280;4288;48.484;10.024;2022-11-06T12:19:46;95408.44;;;14.55;84.45
8501;BME280;4288;48.484;10.024;2022-11-06T12:22:22;95402.34;;;14.55;84.37
8501;BME280;4288;48.484;10.024;2022-11-06T12:24:55;95397.34;;;14.53;84.23
8501;BME280;4288;48.484;10.024;2022-11-06T12:27:28;95402.34;;;14.55;84.84
8501;BME280;4288;48.484;10.024;2022-11-06T12:30:05;95397.31;;;14.57;84.72
8501;BME280;4288;48.484;10.024;2022-11-06T12:32:59;95389.25;;;14.57;84.65
8501;BME280;4288;48.484;10.024;2022-11-06T12:35:29;95394.63;;;14.57;84.70
8501;BME280;4288;48.484;10.024;2022-11-06T12:38:10;95388.81;;;14.58;84.63
8501;BME280;4288;48.484;10.024;2022-11-06T12:40:40;95382.69;;;14.58;84.76
8501;BME280;4288;48.484;10.024;2022-11-06T12:43:18;95378.06;;;14.58;84.69
8501;BME280;4288;48.484;10.024;2022-11-06T12:46:31;95368.06;;;14.59;84.72
8501;BME280;4288;48.484;10.024;2022-11-06T12:52:26;95376.88;;;14.59;84.96
8501;BME280;4288;48.484;10.024;2022-11-06T12:55:15;95365.38;;;14.59;84.57
8501;BME280;4288;48.484;10.024;2022-11-06T12:57:57;95364.19;;;14.60;84.78
8501;BME280;4288;48.484;10.024;2022-11-06T13:00:35;95366.91;;;14.60;84.76
8501;BME280;4288;48.484;10.024;2022-11-06T13:03:29;95365.75;;;14.61;84.80
8501;BME280;4288;48.484;10.024;2022-11-06T13:06:06;95365.75;;;14.61;84.93
8501;BME280;4288;48.484;10.024;2022-11-06T13:08:44;95359.59;;;14.60;84.90
8501;BME280;4288;48.484;10.024;2022-11-06T13:11:24;95359.94;;;14.62;84.93
8501;BME280;4288;48.484;10.024;2022-11-06T13:14:14;95351.53;;;14.60;85.09
8501;BME280;4288;48.484;10.024;2022-11-06T13:16:53;95361.44;;;14.63;84.98
8501;BME280;4288;48.484;10.024;2022-11-06T13:19:32;95362.22;;;14.64;84.92
8501;BME280;4288;48.484;10.024;2022-11-06T13:22:18;95343.38;;;14.64;84.87
8501;BME280;4288;48.484;10.024;2022-11-06T13:24:57;95348.78;;;14.64;84.87
8501;BME280;4288;48.484;10.024;2022-11-06T13:27:32;95347.59;;;14.65;84.89
8501;BME280;4288;48.484;10.024;2022-11-06T13:30:12;95343.38;;;14.64;85.18
8501;BME280;4288;48.484;10.024;2022-11-06T13:32:44;95333.41;;;14.64;85.03
8501;BME280;4288;48.484;10.024;2022-11-06T13:35:17;95339.13;;;14.66;84.74
8501;BME280;4288;48.484;10.024;2022-11-06T13:37:47;95329.53;;;14.65;85.04
8501;BME280;4288;48.484;10.024;2022-11-06T13:40:23;95327.94;;;14.68;84.88